sensor_id;sensor_type;location;lat;lon;timestamp;temperature;humidity
62991;DHT22;49084;48.204;16.202;2024-02-04T00:01:02;8.30;99.90
62991;DHT22;49084;48.204;16.202;2024-02-04T00:03:28;8.30;99.90
62991;DHT22;49084;48.204;16.202;2024-02-04T00:05:54;8.30;99.90
62991;DHT22;49084;48.204;16.202;2024-02-04T00:08:19;8.40;99.90
62991;DHT22;49084;48.204;16.202;2024-02-04T00:10:45;8.40;99.90
62991;DHT22;49084;48.204;16.202;2024-02-04T00:13:11;8.40;99.90
62991;DHT22;49084;48.204;16.202;2024-02-04T00:15:36;8.40;99.90
62991;DHT22;49084;48.204;16.202;2024-02-04T00:18:02;8.40;99.90
62991;DHT22;49084;48.204;16.202;2024-02-04T00:20:28;8.40;99.90
62991;DHT22;49084;48.204;16.202;2024-02-04T00:22:54;8.40;99.90
62991;DHT22;49084;48.204;16.202;2024-02-04T00:25:20;8.40;99.90
62991;DHT22;49084;48.204;16.202;2024-02-04T00:27:46;8.40;99.90
62991;DHT22;49084;48.204;16.202;2024-02-04T00:30:11;8.40;99.90
62991;DHT22;49084;48.204;16.202;2024-02-04T00:32:37;8.40;99.90
62991;DHT22;49084;48.204;16.202;2024-02-04T00:35:03;8.40;99.90
62991;DHT22;49084;48.204;16.202;2024-02-04T00:37:28;8.40;99.90
62991;DHT22;49084;48.204;16.202;2024-02-04T00:39:54;8.40;99.90
62991;DHT22;49084;48.204;16.202;2024-02-04T00:42:20;8.30;99.90
62991;DHT22;49084;48.204;16.202;2024-02-04T00:44:45;8.30;99.90
62991;DHT22;49084;48.204;16.202;2024-02-04T00:47:11;8.40;99.90
62991;DHT22;49084;48.204;16.202;2024-02-04T00:49:38;8.40;99.90
62991;DHT22;49084;48.204;16.202;2024-02-04T00:52:04;8.50;99.90
62991;DHT22;49084;48.204;16.202;2024-02-04T00:54:30;8.50;99.90
62991;DHT22;49084;48.204;16.202;2024-02-04T00:56:56;8.50;99.90
62991;DHT22;49084;48.204;16.202;2024-02-04T00:59:22;8.60;99.90
62991;DHT22;49084;48.204;16.202;2024-02-04T01:01:48;8.60;99.90
62991;DHT22;49084;48.204;16.202;2024-02-04T01:04:14;8.50;99.90
62991;DHT22;49084;48.204;16.202;2024-02-04T01:06:39;8.50;99.90
62991;DHT22;49084;48.204;16.202;2024-02-04T01:09:05;8.50;99.90
62991;DHT22;49084;48.204;16.202;2024-02-04T01:11:30;8.50;99.90
62991;DHT22;49084;48.204;16.202;2024-02-04T01:13:57;8.50;99.90
62991;DHT22;49084;48.204;16.202;2024-02-04T01:16:22;8.30;99.90
62991;DHT22;49084;48.204;16.202;2024-02-04T01:18:48;8.20;99.90
62991;DHT22;49084;48.204;16.202;2024-02-04T01:21:13;8.00;99.90
62991;DHT22;49084;48.204;16.202;2024-02-04T01:23:39;7.90;99.90
62991;DHT22;49084;48.204;16.202;2024-02-04T01:26:05;7.80;99.90
62991;DHT22;49084;48.204;16.202;2024-02-04T01:28:30;7.70;99.90
62991;DHT22;49084;48.204;16.202;2024-02-04T01:30:56;7.60;99.90
62991;DHT22;49084;48.204;16.202;2024-02-04T01:33:22;7.50;99.90
62991;DHT22;49084;48.204;16.202;2024-02-04T01:35:47;7.50;99.90
62991;DHT22;49084;48.204;16.202;2024-02-04T01:38:13;7.50;99.90
62991;DHT22;49084;48.204;16.202;2024-02-04T01:40:38;7.50;99.90
62991;DHT22;49084;48.204;16.202;2024-02-04T01:43:04;7.50;99.90
62991;DHT22;49084;48.204;16.202;2024-02-04T01:45:31;7.50;99.90
62991;DHT22;49084;48.204;16.202;2024-02-04T01:47:56;7.40;99.90
62991;DHT22;49084;48.204;16.202;2024-02-04T01:50:23;7.40;99.90
62991;DHT22;49084;48.204;16.202;2024-02-04T01:52:50;7.40;99.90
62991;DHT22;49084;48.204;16.202;2024-02-04T01:55:17;7.30;99.90
62991;DHT22;49084;48.204;16.202;2024-02-04T01:57:44;7.30;99.90
62991;DHT22;49084;48.204;16.202;2024-02-04T02:00:10;7.20;99.90
62991;DHT22;49084;48.204;16.202;2024-02-04T02:02:41;7.30;99.90
62991;DHT22;49084;48.204;16.202;2024-02-04T02:05:07;7.30;99.90
62991;DHT22;49084;48.204;16.202;2024-02-04T02:07:34;7.30;99.90
62991;DHT22;49084;48.204;16.202;2024-02-04T02:09:59;7.30;99.90
62991;DHT22;49084;48.204;16.202;2024-02-04T02:15:33;7.20;99.90
62991;DHT22;49084;48.204;16.202;2024-02-04T02:18:11;7.20;99.90
62991;DHT22;49084;48.204;16.202;2024-02-04T02:23:31;7.20;99.90
62991;DHT22;49084;48.204;16.202;2024-02-04T02:26:00;7.20;99.90
62991;DHT22;49084;48.204;16.202;2024-02-04T02:28:26;7.20;99.90
62991;DHT22;49084;48.204;16.202;2024-02-04T02:30:51;7.20;99.90
62991;DHT22;49084;48.204;16.202;2024-02-04T02:33:17;7.20;99.90
62991;DHT22;49084;48.204;16.202;2024-02-04T02:35:44;7.20;99.90
62991;DHT22;49084;48.204;16.202;2024-02-04T02:38:24;7.20;99.90
62991;DHT22;49084;48.204;16.202;2024-02-04T02:41:09;7.20;99.90
62991;DHT22;49084;48.204;16.202;2024-02-04T02:43:39;7.20;99.90
62991;DHT22;49084;48.204;16.202;2024-02-04T02:46:07;7.20;99.90
62991;DHT22;49084;48.204;16.202;2024-02-04T02:48:33;7.20;99.90
62991;DHT22;49084;48.204;16.202;2024-02-04T02:50:58;7.20;99.90
62991;DHT22;49084;48.204;16.202;2024-02-04T02:53:24;7.20;99.90
62991;DHT22;49084;48.204;16.202;2024-02-04T02:55:50;7.20;99.90
62991;DHT22;49084;48.204;16.202;2024-02-04T02:58:15;7.20;99.90
62991;DHT22;49084;48.204;16.202;2024-02-04T03:00:41;7.20;99.90
62991;DHT22;49084;48.204;16.202;2024-02-04T03:03:06;7.20;99.90
62991;DHT22;49084;48.204;16.202;2024-02-04T03:05:32;7.30;99.90
62991;DHT22;49084;48.204;16.202;2024-02-04T03:07:58;7.20;99.90
62991;DHT22;49084;48.204;16.202;2024-02-04T03:10:24;7.30;99.90
62991;DHT22;49084;48.204;16.202;2024-02-04T03:12:50;7.30;99.90
62991;DHT22;49084;48.204;16.202;2024-02-04T03:15:15;7.30;99.90
62991;DHT22;49084;48.204;16.202;2024-02-04T03:17:42;7.30;99.90
62991;DHT22;49084;48.204;16.202;2024-02-04T03:20:09;7.40;99.90
62991;DHT22;49084;48.204;16.202;2024-02-04T03:22:35;7.40;99.90
62991;DHT22;49084;48.204;16.202;2024-02-04T03:25:01;7.40;99.90
62991;DHT22;49084;48.204;16.202;2024-02-04T03:27:26;7.50;99.90
62991;DHT22;49084;48.204;16.202;2024-02-04T03:29:52;7.50;99.90
62991;DHT22;49084;48.204;16.202;2024-02-04T03:32:18;7.50;99.90
62991;DHT22;49084;48.204;16.202;2024-02-04T03:34:43;7.50;99.90
62991;DHT22;49084;48.204;16.202;2024-02-04T03:37:09;7.50;99.90
62991;DHT22;49084;48.204;16.202;2024-02-04T03:39:35;7.60;99.90
62991;DHT22;49084;48.204;16.202;2024-02-04T03:42:00;7.50;99.90
62991;DHT22;49084;48.204;16.202;2024-02-04T03:44:26;7.60;99.90
62991;DHT22;49084;48.204;16.202;2024-02-04T03:46:52;7.60;99.90
62991;DHT22;49084;48.204;16.202;2024-02-04T03:49:17;7.60;99.90
62991;DHT22;49084;48.204;16.202;2024-02-04T03:51:43;7.60;99.90
62991;DHT22;49084;48.204;16.202;2024-02-04T03:54:09;7.60;99.90
62991;DHT22;49084;48.204;16.202;2024-02-04T03:56:35;7.60;99.90
62991;DHT22;49084;48.204;16.202;2024-02-04T03:59:00;7.70;99.90
62991;DHT22;49084;48.204;16.202;2024-02-04T04:01:26;7.70;99.90
62991;DHT22;49084;48.204;16.202;2024-02-04T04:03:52;7.70;99.90
62991;DHT22;49084;48.204;16.202;2024-02-04T04:06:17;7.80;99.90
62991;DHT22;49084;48.204;16.202;2024-02-04T04:08:43;7.80;99.90
62991;DHT22;49084;48.204;16.202;2024-02-04T04:11:09;7.80;99.90
62991;DHT22;49084;48.204;16.202;2024-02-04T04:13:36;7.80;99.90
62991;DHT22;49084;48.204;16.202;2024-02-04T04:16:06;7.80;99.90
62991;DHT22;49084;48.204;16.202;2024-02-04T04:18:31;7.80;99.90
62991;DHT22;49084;48.204;16.202;2024-02-04T04:20:57;7.90;99.90
62991;DHT22;49084;48.204;16.202;2024-02-04T04:23:23;7.90;99.90
62991;DHT22;49084;48.204;16.202;2024-02-04T04:25:48;7.80;99.90
62991;DHT22;49084;48.204;16.202;2024-02-04T04:28:14;7.80;99.90
62991;DHT22;49084;48.204;16.202;2024-02-04T04:30:40;7.80;99.90
62991;DHT22;49084;48.204;16.202;2024-02-04T04:33:05;7.80;99.90
62991;DHT22;49084;48.204;16.202;2024-02-04T04:35:32;7.80;99.90
62991;DHT22;49084;48.204;16.202;2024-02-04T04:37:57;7.80;99.90
62991;DHT22;49084;48.204;16.202;2024-02-04T04:40:23;7.90;99.90
62991;DHT22;49084;48.204;16.202;2024-02-04T04:42:49;8.00;99.90
62991;DHT22;49084;48.204;16.202;2024-02-04T04:45:14;8.00;99.90
62991;DHT22;49084;48.204;16.202;2024-02-04T04:47:40;8.00;99.90
62991;DHT22;49084;48.204;16.202;2024-02-04T04:50:06;8.00;99.90
62991;DHT22;49084;48.204;16.202;2024-02-04T04:52:32;8.00;99.90
62991;DHT22;49084;48.204;16.202;2024-02-04T04:54:58;8.00;99.90
62991;DHT22;49084;48.204;16.202;2024-02-04T04:57:24;8.10;99.90
62991;DHT22;49084;48.204;16.202;2024-02-04T04:59:49;8.10;99.90
62991;DHT22;49084;48.204;16.202;2024-02-04T05:02:15;8.10;99.90
62991;DHT22;49084;48.204;16.202;2024-02-04T05:04:44;8.20;99.90
62991;DHT22;49084;48.204;16.202;2024-02-04T05:07:11;8.20;99.90
62991;DHT22;49084;48.204;16.202;2024-02-04T05:09:36;8.20;99.90
62991;DHT22;49084;48.204;16.202;2024-02-04T05:12:03;8.20;99.90
62991;DHT22;49084;48.204;16.202;2024-02-04T05:14:29;8.20;99.90
62991;DHT22;49084;48.204;16.202;2024-02-04T05:16:54;8.20;99.90
62991;DHT22;49084;48.204;16.202;2024-02-04T05:19:20;8.20;99.90
62991;DHT22;49084;48.204;16.202;2024-02-04T05:21:46;8.20;99.90
62991;DHT22;49084;48.204;16.202;2024-02-04T05:24:12;8.20;99.90
62991;DHT22;49084;48.204;16.202;2024-02-04T05:26:37;8.20;99.90
62991;DHT22;49084;48.204;16.202;2024-02-04T05:29:03;8.20;99.90
62991;DHT22;49084;48.204;16.202;2024-02-04T05:31:29;8.20;99.90
62991;DHT22;49084;48.204;16.202;2024-02-04T05:33:56;8.20;99.90
62991;DHT22;49084;48.204;16.202;2024-02-04T05:36:21;8.20;99.90
62991;DHT22;49084;48.204;16.202;2024-02-04T05:38:47;8.20;99.90
62991;DHT22;49084;48.204;16.202;2024-02-04T05:41:13;8.20;99.90
62991;DHT22;49084;48.204;16.202;2024-02-04T05:43:39;8.10;99.90
62991;DHT22;49084;48.204;16.202;2024-02-04T05:46:04;8.20;99.90
62991;DHT22;49084;48.204;16.202;2024-02-04T05:48:30;8.10;99.90
62991;DHT22;49084;48.204;16.202;2024-02-04T05:50:56;8.20;99.90
62991;DHT22;49084;48.204;16.202;2024-02-04T05:53:21;8.20;99.90
62991;DHT22;49084;48.204;16.202;2024-02-04T05:55:47;8.10;99.90
62991;DHT22;49084;48.204;16.202;2024-02-04T05:58:13;8.10;99.90
62991;DHT22;49084;48.204;16.202;2024-02-04T06:00:39;8.10;99.90
62991;DHT22;49084;48.204;16.202;2024-02-04T06:03:05;8.10;99.90
62991;DHT22;49084;48.204;16.202;2024-02-04T06:05:31;8.10;99.90
62991;DHT22;49084;48.204;16.202;2024-02-04T06:07:57;8.20;99.90
62991;DHT22;49084;48.204;16.202;2024-02-04T06:10:22;8.20;99.90
62991;DHT22;49084;48.204;16.202;2024-02-04T06:12:48;8.20;99.90
62991;DHT22;49084;48.204;16.202;2024-02-04T06:15:14;8.20;99.90
62991;DHT22;49084;48.204;16.202;2024-02-04T06:17:40;8.20;99.90
62991;DHT22;49084;48.204;16.202;2024-02-04T06:22:50;8.10;99.90
62991;DHT22;49084;48.204;16.202;2024-02-04T06:25:16;8.00;99.90
62991;DHT22;49084;48.204;16.202;2024-02-04T06:27:42;8.00;99.90
62991;DHT22;49084;48.204;16.202;2024-02-04T06:30:07;8.10;99.90
62991;DHT22;49084;48.204;16.202;2024-02-04T06:32:33;8.10;99.90
62991;DHT22;49084;48.204;16.202;2024-02-04T06:34:59;8.10;99.90
62991;DHT22;49084;48.204;16.202;2024-02-04T06:37:24;8.10;99.90
62991;DHT22;49084;48.204;16.202;2024-02-04T06:39:52;8.10;99.90
62991;DHT22;49084;48.204;16.202;2024-02-04T06:42:18;8.20;99.90
62991;DHT22;49084;48.204;16.202;2024-02-04T06:44:44;8.20;99.90
62991;DHT22;49084;48.204;16.202;2024-02-04T06:47:10;8.20;99.90
62991;DHT22;49084;48.204;16.202;2024-02-04T06:49:38;8.20;99.90
62991;DHT22;49084;48.204;16.202;2024-02-04T06:52:04;8.20;99.90
62991;DHT22;49084;48.204;16.202;2024-02-04T06:54:29;8.20;99.90
62991;DHT22;49084;48.204;16.202;2024-02-04T06:56:55;8.20;99.90
62991;DHT22;49084;48.204;16.202;2024-02-04T06:59:21;8.20;99.90
62991;DHT22;49084;48.204;16.202;2024-02-04T07:01:46;8.20;99.90
62991;DHT22;49084;48.204;16.202;2024-02-04T07:04:12;8.20;99.90
62991;DHT22;49084;48.204;16.202;2024-02-04T07:06:38;8.30;99.90
62991;DHT22;49084;48.204;16.202;2024-02-04T07:09:04;8.30;99.90
62991;DHT22;49084;48.204;16.202;2024-02-04T07:11:29;8.40;99.90
62991;DHT22;49084;48.204;16.202;2024-02-04T07:13:55;8.50;99.90
62991;DHT22;49084;48.204;16.202;2024-02-04T07:16:26;8.50;99.90
62991;DHT22;49084;48.204;16.202;2024-02-04T07:18:51;8.60;99.90
62991;DHT22;49084;48.204;16.202;2024-02-04T07:21:17;8.70;99.90
62991;DHT22;49084;48.204;16.202;2024-02-04T07:23:43;8.70;99.90
62991;DHT22;49084;48.204;16.202;2024-02-04T07:26:09;8.70;99.90
62991;DHT22;49084;48.204;16.202;2024-02-04T07:28:34;8.70;99.90
62991;DHT22;49084;48.204;16.202;2024-02-04T07:31:00;8.80;99.90
62991;DHT22;49084;48.204;16.202;2024-02-04T07:33:26;8.70;99.90
62991;DHT22;49084;48.204;16.202;2024-02-04T07:35:52;8.80;99.90
62991;DHT22;49084;48.204;16.202;2024-02-04T07:38:17;8.80;99.90
62991;DHT22;49084;48.204;16.202;2024-02-04T07:40:43;8.80;99.90
62991;DHT22;49084;48.204;16.202;2024-02-04T07:43:08;8.80;99.90
62991;DHT22;49084;48.204;16.202;2024-02-04T07:45:34;8.80;99.90
62991;DHT22;49084;48.204;16.202;2024-02-04T07:48:00;8.90;99.90
62991;DHT22;49084;48.204;16.202;2024-02-04T07:50:27;8.90;99.90
62991;DHT22;49084;48.204;16.202;2024-02-04T07:52:53;8.90;99.90
62991;DHT22;49084;48.204;16.202;2024-02-04T07:55:19;9.00;99.90
62991;DHT22;49084;48.204;16.202;2024-02-04T07:57:45;9.10;99.90
62991;DHT22;49084;48.204;16.202;2024-02-04T08:00:11;9.20;99.90
62991;DHT22;49084;48.204;16.202;2024-02-04T08:02:37;9.20;99.90
62991;DHT22;49084;48.204;16.202;2024-02-04T08:05:06;9.20;99.90
62991;DHT22;49084;48.204;16.202;2024-02-04T08:07:32;9.20;99.90
62991;DHT22;49084;48.204;16.202;2024-02-04T08:09:58;9.30;99.90
62991;DHT22;49084;48.204;16.202;2024-02-04T08:12:23;9.40;99.90
62991;DHT22;49084;48.204;16.202;2024-02-04T08:14:49;9.50;99.90
62991;DHT22;49084;48.204;16.202;2024-02-04T08:17:15;9.60;99.90
62991;DHT22;49084;48.204;16.202;2024-02-04T08:19:41;9.60;99.90
62991;DHT22;49084;48.204;16.202;2024-02-04T08:22:06;9.50;99.90
62991;DHT22;49084;48.204;16.202;2024-02-04T08:24:33;9.60;99.90
62991;DHT22;49084;48.204;16.202;2024-02-04T08:26:59;9.90;99.90
62991;DHT22;49084;48.204;16.202;2024-02-04T08:29:25;10.10;99.90
62991;DHT22;49084;48.204;16.202;2024-02-04T08:31:52;10.20;99.90
62991;DHT22;49084;48.204;16.202;2024-02-04T08:34:18;10.40;99.90
62991;DHT22;49084;48.204;16.202;2024-02-04T08:36:47;10.40;99.90
62991;DHT22;49084;48.204;16.202;2024-02-04T08:39:12;10.40;99.90
62991;DHT22;49084;48.204;16.202;2024-02-04T08:41:38;10.40;99.90
62991;DHT22;49084;48.204;16.202;2024-02-04T08:44:03;10.70;99.90
62991;DHT22;49084;48.204;16.202;2024-02-04T08:46:29;11.00;99.90
62991;DHT22;49084;48.204;16.202;2024-02-04T08:48:55;11.00;99.90
62991;DHT22;49084;48.204;16.202;2024-02-04T08:51:21;11.20;99.90
62991;DHT22;49084;48.204;16.202;2024-02-04T08:53:46;11.30;99.90
62991;DHT22;49084;48.204;16.202;2024-02-04T08:56:12;11.80;99.90
62991;DHT22;49084;48.204;16.202;2024-02-04T08:58:38;11.70;99.90
62991;DHT22;49084;48.204;16.202;2024-02-04T09:01:04;11.70;99.90
62991;DHT22;49084;48.204;16.202;2024-02-04T09:03:30;12.10;99.90
62991;DHT22;49084;48.204;16.202;2024-02-04T09:05:57;12.30;99.90
62991;DHT22;49084;48.204;16.202;2024-02-04T09:08:23;12.40;99.90
62991;DHT22;49084;48.204;16.202;2024-02-04T09:10:48;12.50;99.90
62991;DHT22;49084;48.204;16.202;2024-02-04T09:13:14;12.70;99.90
62991;DHT22;49084;48.204;16.202;2024-02-04T09:15:40;13.00;99.90
62991;DHT22;49084;48.204;16.202;2024-02-04T09:18:05;12.60;99.90
62991;DHT22;49084;48.204;16.202;2024-02-04T09:20:31;12.10;99.90
62991;DHT22;49084;48.204;16.202;2024-02-04T09:23:03;12.30;99.90
62991;DHT22;49084;48.204;16.202;2024-02-04T09:25:30;13.10;99.90
62991;DHT22;49084;48.204;16.202;2024-02-04T09:27:56;13.80;99.90
62991;DHT22;49084;48.204;16.202;2024-02-04T09:30:21;13.90;99.90
62991;DHT22;49084;48.204;16.202;2024-02-04T09:32:47;14.20;99.90
62991;DHT22;49084;48.204;16.202;2024-02-04T09:35:13;14.50;99.90
62991;DHT22;49084;48.204;16.202;2024-02-04T09:37:38;14.40;99.90
62991;DHT22;49084;48.204;16.202;2024-02-04T09:40:04;14.10;99.90
62991;DHT22;49084;48.204;16.202;2024-02-04T09:42:30;14.10;99.90
62991;DHT22;49084;48.204;16.202;2024-02-04T09:44:57;13.40;99.90
62991;DHT22;49084;48.204;16.202;2024-02-04T09:47:23;12.80;99.90
62991;DHT22;49084;48.204;16.202;2024-02-04T09:49:48;12.70;99.90
62991;DHT22;49084;48.204;16.202;2024-02-04T09:52:18;12.60;99.90
62991;DHT22;49084;48.204;16.202;2024-02-04T09:54:49;12.60;99.90
62991;DHT22;49084;48.204;16.202;2024-02-04T09:57:16;12.50;99.90
62991;DHT22;49084;48.204;16.202;2024-02-04T09:59:43;12.70;99.90
62991;DHT22;49084;48.204;16.202;2024-02-04T10:02:10;12.90;99.90
62991;DHT22;49084;48.204;16.202;2024-02-04T10:04:35;12.70;99.90
62991;DHT22;49084;48.204;16.202;2024-02-04T10:07:02;12.70;99.90
62991;DHT22;49084;48.204;16.202;2024-02-04T10:09:28;12.10;99.90
62991;DHT22;49084;48.204;16.202;2024-02-04T10:11:55;12.10;99.90
62991;DHT22;49084;48.204;16.202;2024-02-04T10:14:21;12.10;99.90
62991;DHT22;49084;48.204;16.202;2024-02-04T10:16:46;12.30;99.90
62991;DHT22;49084;48.204;16.202;2024-02-04T10:19:12;12.30;99.90
62991;DHT22;49084;48.204;16.202;2024-02-04T10:21:38;12.70;99.90
62991;DHT22;49084;48.204;16.202;2024-02-04T10:24:05;12.90;99.90
62991;DHT22;49084;48.204;16.202;2024-02-04T10:26:31;12.80;99.90
62991;DHT22;49084;48.204;16.202;2024-02-04T10:28:57;12.80;99.90
62991;DHT22;49084;48.204;16.202;2024-02-04T10:31:23;13.20;99.90
62991;DHT22;49084;48.204;16.202;2024-02-04T10:33:50;13.10;99.90
62991;DHT22;49084;48.204;16.202;2024-02-04T10:36:17;12.80;99.90
62991;DHT22;49084;48.204;16.202;2024-02-04T10:38:42;12.50;99.90
62991;DHT22;49084;48.204;16.202;2024-02-04T10:41:11;11.90;99.90
62991;DHT22;49084;48.204;16.202;2024-02-04T10:43:44;11.60;99.90
62991;DHT22;49084;48.204;16.202;2024-02-04T10:46:17;11.40;99.90
62991;DHT22;49084;48.204;16.202;2024-02-04T10:48:43;11.40;99.90
62991;DHT22;49084;48.204;16.202;2024-02-04T10:51:13;11.30;99.90
62991;DHT22;49084;48.204;16.202;2024-02-04T10:53:41;11.40;99.90
62991;DHT22;49084;48.204;16.202;2024-02-04T10:56:19;11.30;99.90
62991;DHT22;49084;48.204;16.202;2024-02-04T10:58:47;11.20;99.90
62991;DHT22;49084;48.204;16.202;2024-02-04T11:01:14;11.20;99.90
62991;DHT22;49084;48.204;16.202;2024-02-04T11:03:40;11.20;99.90
62991;DHT22;49084;48.204;16.202;2024-02-04T11:06:10;11.40;99.90
62991;DHT22;49084;48.204;16.202;2024-02-04T11:08:38;11.50;99.90
62991;DHT22;49084;48.204;16.202;2024-02-04T11:11:04;11.40;99.90
62991;DHT22;49084;48.204;16.202;2024-02-04T11:13:31;11.30;99.90
62991;DHT22;49084;48.204;16.202;2024-02-04T11:16:06;11.10;99.90
62991;DHT22;49084;48.204;16.202;2024-02-04T11:18:58;11.00;99.90
62991;DHT22;49084;48.204;16.202;2024-02-04T11:22:12;10.80;99.90
62991;DHT22;49084;48.204;16.202;2024-02-04T11:27:35;10.50;99.90
62991;DHT22;49084;48.204;16.202;2024-02-04T11:30:01;10.30;99.90
62991;DHT22;49084;48.204;16.202;2024-02-04T11:32:28;10.30;99.90
62991;DHT22;49084;48.204;16.202;2024-02-04T11:34:54;10.20;99.90
62991;DHT22;49084;48.204;16.202;2024-02-04T11:37:26;10.10;99.90
62991;DHT22;49084;48.204;16.202;2024-02-04T11:39:53;10.10;99.90
62991;DHT22;49084;48.204;16.202;2024-02-04T11:42:19;10.00;99.90
62991;DHT22;49084;48.204;16.202;2024-02-04T11:44:46;10.00;99.90
62991;DHT22;49084;48.204;16.202;2024-02-04T11:47:25;9.90;99.90
62991;DHT22;49084;48.204;16.202;2024-02-04T11:49:55;9.80;99.90
62991;DHT22;49084;48.204;16.202;2024-02-04T11:52:21;9.90;99.90
62991;DHT22;49084;48.204;16.202;2024-02-04T11:54:47;9.90;99.90
62991;DHT22;49084;48.204;16.202;2024-02-04T11:57:14;9.80;99.90
62991;DHT22;49084;48.204;16.202;2024-02-04T11:59:42;9.90;99.90
62991;DHT22;49084;48.204;16.202;2024-02-04T12:02:07;9.90;99.90
62991;DHT22;49084;48.204;16.202;2024-02-04T12:04:34;10.00;99.90
62991;DHT22;49084;48.204;16.202;2024-02-04T12:07:00;10.10;99.90
62991;DHT22;49084;48.204;16.202;2024-02-04T12:09:28;10.10;99.90
62991;DHT22;49084;48.204;16.202;2024-02-04T12:11:54;10.20;99.90
62991;DHT22;49084;48.204;16.202;2024-02-04T12:14:21;10.20;99.90
62991;DHT22;49084;48.204;16.202;2024-02-04T12:16:47;10.20;99.90
62991;DHT22;49084;48.204;16.202;2024-02-04T12:19:13;10.20;99.90
62991;DHT22;49084;48.204;16.202;2024-02-04T12:21:39;10.30;99.90
62991;DHT22;49084;48.204;16.202;2024-02-04T12:24:05;10.20;99.90
62991;DHT22;49084;48.204;16.202;2024-02-04T12:26:31;10.30;99.90
62991;DHT22;49084;48.204;16.202;2024-02-04T12:28:57;10.30;99.90
62991;DHT22;49084;48.204;16.202;2024-02-04T12:31:26;10.40;99.90
62991;DHT22;49084;48.204;16.202;2024-02-04T12:33:58;10.40;99.90
62991;DHT22;49084;48.204;16.202;2024-02-04T12:36:31;10.40;99.90
62991;DHT22;49084;48.204;16.202;2024-02-04T12:38:58;10.30;99.90
62991;DHT22;49084;48.204;16.202;2024-02-04T12:41:26;10.30;99.90
62991;DHT22;49084;48.204;16.202;2024-02-04T12:43:52;10.20;99.90
62991;DHT22;49084;48.204;16.202;2024-02-04T12:46:22;10.20;99.90
62991;DHT22;49084;48.204;16.202;2024-02-04T12:48:56;10.10;99.90
62991;DHT22;49084;48.204;16.202;2024-02-04T12:51:30;10.10;99.90
62991;DHT22;49084;48.204;16.202;2024-02-04T12:54:06;10.10;99.90
62991;DHT22;49084;48.204;16.202;2024-02-04T12:56:53;10.10;99.90
62991;DHT22;49084;48.204;16.202;2024-02-04T13:01:55;10.30;99.90
62991;DHT22;49084;48.204;16.202;2024-02-04T13:04:21;10.30;99.90
62991;DHT22;49084;48.204;16.202;2024-02-04T13:06:47;10.40;99.90
62991;DHT22;49084;48.204;16.202;2024-02-04T13:09:16;10.40;99.90
62991;DHT22;49084;48.204;16.202;2024-02-04T13:11:45;10.40;99.90
62991;DHT22;49084;48.204;16.202;2024-02-04T13:14:10;10.40;99.90
62991;DHT22;49084;48.204;16.202;2024-02-04T13:16:37;10.30;99.90
62991;DHT22;49084;48.204;16.202;2024-02-04T13:19:03;10.20;99.90
62991;DHT22;49084;48.204;16.202;2024-02-04T13:21:29;10.10;99.90
62991;DHT22;49084;48.204;16.202;2024-02-04T13:23:56;10.10;99.90
62991;DHT22;49084;48.204;16.202;2024-02-04T13:26:21;10.10;99.90
62991;DHT22;49084;48.204;16.202;2024-02-04T13:28:47;10.10;99.90
62991;DHT22;49084;48.204;16.202;2024-02-04T13:31:13;10.20;99.90
62991;DHT22;49084;48.204;16.202;2024-02-04T13:33:40;10.20;99.90
62991;DHT22;49084;48.204;16.202;2024-02-04T13:36:07;10.20;99.90
62991;DHT22;49084;48.204;16.202;2024-02-04T13:38:33;10.10;99.90
62991;DHT22;49084;48.204;16.202;2024-02-04T13:41:00;10.20;99.90
62991;DHT22;49084;48.204;16.202;2024-02-04T13:43:25;10.20;99.90
62991;DHT22;49084;48.204;16.202;2024-02-04T13:45:52;10.30;99.90
62991;DHT22;49084;48.204;16.202;2024-02-04T13:48:17;10.20;99.90
62991;DHT22;49084;48.204;16.202;2024-02-04T13:50:44;10.20;99.90
62991;DHT22;49084;48.204;16.202;2024-02-04T13:53:10;10.30;99.90
62991;DHT22;49084;48.204;16.202;2024-02-04T13:55:37;10.30;99.90
62991;DHT22;49084;48.204;16.202;2024-02-04T13:58:03;10.30;99.90
62991;DHT22;49084;48.204;16.202;2024-02-04T14:00:29;10.30;99.90
62991;DHT22;49084;48.204;16.202;2024-02-04T14:02:54;10.30;99.90
62991;DHT22;49084;48.204;16.202;2024-02-04T14:05:20;10.30;99.90
62991;DHT22;49084;48.204;16.202;2024-02-04T14:07:46;10.30;99.90
62991;DHT22;49084;48.204;16.202;2024-02-04T14:10:11;10.40;99.90
62991;DHT22;49084;48.204;16.202;2024-02-04T14:12:40;10.40;99.90
62991;DHT22;49084;48.204;16.202;2024-02-04T14:15:09;10.40;99.90
62991;DHT22;49084;48.204;16.202;2024-02-04T14:17:35;10.30;99.90
62991;DHT22;49084;48.204;16.202;2024-02-04T14:20:00;10.30;99.90
62991;DHT22;49084;48.204;16.202;2024-02-04T14:22:26;10.30;99.90
62991;DHT22;49084;48.204;16.202;2024-02-04T14:24:53;10.30;99.90
62991;DHT22;49084;48.204;16.202;2024-02-04T14:27:18;10.20;99.90
62991;DHT22;49084;48.204;16.202;2024-02-04T14:29:59;10.20;99.90
62991;DHT22;49084;48.204;16.202;2024-02-04T14:32:25;10.20;99.90
62991;DHT22;49084;48.204;16.202;2024-02-04T14:34:50;10.20;99.90
62991;DHT22;49084;48.204;16.202;2024-02-04T14:37:19;10.20;99.90
62991;DHT22;49084;48.204;16.202;2024-02-04T14:39:44;10.20;99.90
62991;DHT22;49084;48.204;16.202;2024-02-04T14:42:11;10.20;99.90
62991;DHT22;49084;48.204;16.202;2024-02-04T14:44:37;10.20;99.90
62991;DHT22;49084;48.204;16.202;2024-02-04T14:47:03;10.20;99.90
62991;DHT22;49084;48.204;16.202;2024-02-04T14:49:28;10.20;99.90
62991;DHT22;49084;48.204;16.202;2024-02-04T14:51:54;10.10;99.90
62991;DHT22;49084;48.204;16.202;2024-02-04T14:54:20;10.10;99.90
62991;DHT22;49084;48.204;16.202;2024-02-04T14:56:45;10.20;99.90
62991;DHT22;49084;48.204;16.202;2024-02-04T14:59:13;10.20;99.90
62991;DHT22;49084;48.204;16.202;2024-02-04T15:01:40;10.20;99.90
62991;DHT22;49084;48.204;16.202;2024-02-04T15:04:09;10.20;99.90
62991;DHT22;49084;48.204;16.202;2024-02-04T15:06:37;10.20;99.90
62991;DHT22;49084;48.204;16.202;2024-02-04T15:09:02;10.20;99.90
62991;DHT22;49084;48.204;16.202;2024-02-04T15:11:28;10.30;99.90
62991;DHT22;49084;48.204;16.202;2024-02-04T15:13:56;10.30;99.90
62991;DHT22;49084;48.204;16.202;2024-02-04T15:16:22;10.30;99.90
62991;DHT22;49084;48.204;16.202;2024-02-04T15:18:48;10.30;99.90
62991;DHT22;49084;48.204;16.202;2024-02-04T15:21:14;10.30;99.90
62991;DHT22;49084;48.204;16.202;2024-02-04T15:23:40;10.30;99.90
62991;DHT22;49084;48.204;16.202;2024-02-04T15:26:07;10.30;99.90
62991;DHT22;49084;48.204;16.202;2024-02-04T15:28:36;10.30;99.90
62991;DHT22;49084;48.204;16.202;2024-02-04T15:31:03;10.30;99.90
62991;DHT22;49084;48.204;16.202;2024-02-04T15:33:29;10.30;99.90
62991;DHT22;49084;48.204;16.202;2024-02-04T15:35:54;10.30;99.90